createdAt,value
2023-04-26T00:01:20.136Z,11.27
2023-04-26T00:03:47.011Z,11.25
2023-04-26T00:06:14.786Z,12.73
2023-04-26T00:08:42.306Z,11.35
2023-04-26T00:11:08.926Z,14.52
2023-04-26T00:13:35.384Z,14.05
2023-04-26T00:16:01.882Z,11.93
2023-04-26T00:18:28.456Z,14.63
2023-04-26T00:20:54.933Z,9.50
2023-04-26T00:23:21.495Z,9.73
2023-04-26T00:25:48.006Z,9.52
2023-04-26T00:28:14.638Z,9.15
2023-04-26T00:30:47.792Z,13.05
2023-04-26T00:33:15.030Z,9.85
2023-04-26T00:35:41.542Z,10.93
2023-04-26T00:38:08.097Z,9.70
2023-04-26T00:40:35.511Z,8.98
2023-04-26T00:43:03.084Z,13.25
2023-04-26T00:45:30.893Z,10.70
2023-04-26T00:47:58.987Z,10.70
2023-04-26T00:50:25.663Z,9.38
2023-04-26T00:52:52.433Z,8.95
2023-04-26T00:55:22.226Z,16.70
2023-04-26T00:57:48.936Z,10.48
2023-04-26T01:00:16.501Z,9.88
2023-04-26T01:02:43.170Z,11.93
2023-04-26T01:05:09.951Z,9.88
2023-04-26T01:07:37.407Z,9.35
2023-04-26T01:10:05.600Z,10.95
2023-04-26T01:12:33.009Z,9.68
2023-04-26T01:15:00.208Z,9.07
2023-04-26T01:17:26.725Z,8.93
2023-04-26T01:19:53.559Z,11.57
2023-04-26T01:22:20.066Z,9.52
2023-04-26T01:24:49.229Z,9.95
2023-04-26T01:27:16.778Z,9.90
2023-04-26T01:29:43.343Z,9.18
2023-04-26T01:32:09.792Z,21.27
2023-04-26T01:34:37.326Z,9.88
2023-04-26T01:37:03.852Z,9.63
2023-04-26T01:39:30.395Z,9.77
2023-04-26T01:41:58.679Z,12.63
2023-04-26T01:44:25.363Z,9.20
2023-04-26T01:46:51.910Z,15.43
2023-04-26T01:49:18.442Z,11.15
2023-04-26T01:51:44.985Z,11.30
2023-04-26T01:54:11.571Z,11.18
2023-04-26T01:56:38.373Z,12.98
2023-04-26T01:59:04.872Z,12.45
2023-04-26T02:01:31.567Z,12.27
2023-04-26T02:03:58.334Z,15.57
2023-04-26T02:06:24.901Z,12.60
2023-04-26T02:08:52.704Z,15.23
2023-04-26T02:11:23.152Z,13.60
2023-04-26T02:13:49.675Z,11.02
2023-04-26T02:16:16.998Z,11.23
2023-04-26T02:18:44.542Z,15.98
2023-04-26T02:21:12.202Z,11.20
2023-04-26T02:23:38.706Z,13.07
2023-04-26T02:26:05.215Z,13.93
2023-04-26T02:28:32.257Z,14.10
2023-04-26T02:30:58.958Z,11.93
2023-04-26T02:33:25.792Z,16.00
2023-04-26T02:35:52.257Z,10.20
2023-04-26T02:38:18.829Z,14.27
2023-04-26T02:40:45.495Z,15.82
2023-04-26T02:43:12.080Z,11.32
2023-04-26T02:45:43.142Z,11.90
2023-04-26T02:48:09.730Z,11.30
2023-04-26T02:50:36.443Z,11.40
2023-04-26T02:53:03.672Z,13.40
2023-04-26T02:55:30.147Z,14.80
2023-04-26T02:57:56.721Z,12.38
2023-04-26T03:00:24.240Z,11.48
2023-04-26T03:02:50.998Z,13.60
2023-04-26T03:05:17.583Z,14.32
2023-04-26T03:07:44.060Z,13.00
2023-04-26T03:10:10.923Z,24.33
2023-04-26T03:12:37.504Z,15.82
2023-04-26T03:15:04.538Z,19.75
2023-04-26T03:17:31.169Z,18.25
2023-04-26T03:19:58.146Z,14.70
2023-04-26T03:22:25.627Z,18.02
2023-04-26T03:24:52.305Z,15.90
2023-04-26T03:27:18.788Z,21.52
2023-04-26T03:29:45.268Z,15.38
2023-04-26T03:32:11.870Z,19.38
2023-04-26T03:34:38.440Z,20.75
2023-04-26T03:37:05.083Z,15.02
2023-04-26T03:39:31.692Z,17.55
2023-04-26T03:41:58.177Z,17.35
2023-04-26T03:44:24.797Z,16.58
2023-04-26T03:46:51.313Z,16.65
2023-04-26T03:49:17.874Z,18.95
2023-04-26T03:51:44.465Z,14.25
2023-04-26T03:54:11.168Z,19.95
2023-04-26T03:56:37.771Z,20.20
2023-04-26T03:59:04.198Z,20.42
2023-04-26T04:01:30.733Z,23.17
2023-04-26T04:03:58.040Z,24.88
2023-04-26T04:06:24.737Z,24.38
2023-04-26T04:08:51.551Z,18.10
2023-04-26T04:11:18.278Z,25.02
2023-04-26T04:13:44.801Z,24.95
2023-04-26T04:16:11.371Z,23.63
2023-04-26T04:18:38.015Z,22.00
2023-04-26T04:21:04.460Z,22.98
2023-04-26T04:23:31.122Z,28.63
2023-04-26T04:25:57.776Z,23.30
2023-04-26T04:28:24.445Z,22.63
2023-04-26T04:30:51.026Z,24.77
2023-04-26T04:33:17.956Z,22.75
2023-04-26T04:35:44.930Z,21.10
2023-04-26T04:38:11.479Z,21.13
2023-04-26T04:40:38.010Z,25.67
2023-04-26T04:43:04.713Z,28.85
2023-04-26T04:45:31.280Z,32.45
2023-04-26T04:47:58.294Z,35.78
2023-04-26T04:50:24.996Z,28.02
2023-04-26T04:52:51.485Z,25.20
2023-04-26T04:55:18.068Z,29.75
2023-04-26T04:57:44.591Z,28.60
2023-04-26T05:00:11.896Z,27.05
2023-04-26T05:02:38.768Z,23.17
2023-04-26T05:05:06.203Z,26.55
2023-04-26T05:07:33.324Z,31.80
2023-04-26T05:10:00.159Z,24.27
2023-04-26T05:12:27.000Z,26.15
2023-04-26T05:14:53.522Z,26.42
2023-04-26T05:17:21.356Z,27.45
2023-04-26T05:19:48.241Z,27.85
2023-04-26T05:22:22.412Z,32.13
2023-04-26T05:24:50.394Z,34.00
2023-04-26T05:27:16.895Z,29.75
2023-04-26T05:29:43.436Z,30.00
2023-04-26T05:32:10.094Z,27.17
2023-04-26T05:34:37.379Z,27.95
2023-04-26T05:37:03.936Z,35.17
2023-04-26T05:39:30.615Z,44.13
2023-04-26T05:41:57.382Z,33.17
2023-04-26T05:44:23.909Z,32.05
2023-04-26T05:46:50.679Z,30.08
2023-04-26T05:49:17.201Z,31.70
2023-04-26T05:51:43.710Z,28.65
2023-04-26T05:54:10.199Z,37.42
2023-04-26T05:56:52.836Z,30.23
2023-04-26T05:59:19.342Z,31.25
2023-04-26T06:01:45.862Z,31.52
2023-04-26T06:04:12.662Z,35.33
2023-04-26T06:06:39.556Z,32.13
2023-04-26T06:09:06.081Z,33.55
2023-04-26T06:11:32.599Z,35.42
2023-04-26T06:13:59.217Z,33.40
2023-04-26T06:16:25.953Z,30.88
2023-04-26T06:18:52.461Z,30.35
2023-04-26T06:21:19.042Z,21.35
2023-04-26T06:23:46.622Z,33.03
2023-04-26T06:26:13.236Z,31.58
2023-04-26T06:28:42.128Z,33.30
2023-04-26T06:31:08.935Z,31.38
2023-04-26T06:33:35.532Z,28.83
2023-04-26T06:36:02.242Z,29.00
2023-04-26T06:38:28.853Z,23.02
2023-04-26T06:40:55.491Z,23.20
2023-04-26T06:43:22.000Z,19.35
2023-04-26T06:45:48.604Z,27.23
2023-04-26T06:48:15.280Z,21.05
2023-04-26T06:50:42.259Z,24.10
2023-04-26T06:53:08.857Z,20.23
2023-04-26T06:55:35.325Z,17.92
2023-04-26T06:58:01.931Z,19.58
2023-04-26T07:00:28.645Z,17.73
2023-04-26T07:02:55.422Z,17.00
2023-04-26T07:05:22.306Z,15.68
2023-04-26T07:07:50.511Z,11.90
2023-04-26T07:10:17.355Z,11.98
2023-04-26T07:12:43.936Z,13.52
2023-04-26T07:15:11.038Z,14.80
2023-04-26T07:17:37.598Z,14.13
2023-04-26T07:20:04.683Z,10.40
2023-04-26T07:22:31.380Z,11.98
2023-04-26T07:24:57.904Z,12.25
2023-04-26T07:27:25.037Z,12.10
2023-04-26T07:29:55.039Z,11.70
2023-04-26T07:32:22.193Z,8.60
2023-04-26T07:34:48.857Z,15.23
2023-04-26T07:37:16.179Z,11.68
2023-04-26T07:39:45.454Z,9.30
2023-04-26T07:42:12.053Z,12.05
2023-04-26T07:44:38.663Z,11.20
2023-04-26T07:47:05.268Z,11.48
2023-04-26T07:49:32.077Z,9.10
2023-04-26T07:52:02.020Z,7.72
2023-04-26T07:54:28.958Z,8.05
2023-04-26T07:56:55.842Z,10.82
2023-04-26T07:59:23.570Z,8.60
2023-04-26T08:01:50.574Z,7.97
2023-04-26T08:04:18.178Z,8.15
2023-04-26T08:06:48.591Z,8.15
2023-04-26T08:09:15.185Z,10.95
2023-04-26T08:11:42.126Z,7.70
2023-04-26T08:14:08.727Z,8.20
2023-04-26T08:16:35.328Z,9.40
2023-04-26T08:19:03.018Z,12.13
2023-04-26T08:21:29.690Z,7.50
2023-04-26T08:23:56.265Z,7.28
2023-04-26T08:26:22.798Z,8.32
2023-04-26T08:28:49.414Z,7.82
2023-04-26T08:31:17.573Z,11.05
2023-04-26T08:33:44.316Z,8.27
2023-04-26T08:36:10.855Z,10.07
2023-04-26T08:38:37.578Z,7.65
2023-04-26T08:41:05.034Z,8.68
2023-04-26T08:43:31.636Z,7.95
2023-04-26T08:45:59.466Z,8.57
2023-04-26T08:48:28.400Z,8.13
2023-04-26T08:50:55.321Z,8.55
2023-04-26T08:53:22.011Z,7.93
2023-04-26T08:55:49.526Z,13.02
2023-04-26T08:58:17.834Z,10.65
2023-04-26T09:00:48.484Z,8.38
2023-04-26T09:03:15.422Z,7.57
2023-04-26T09:05:45.732Z,7.30
2023-04-26T09:08:22.044Z,7.68
2023-04-26T09:10:48.606Z,7.93
2023-04-26T09:13:15.274Z,7.97
2023-04-26T09:15:41.966Z,9.02
2023-04-26T09:18:18.316Z,7.60
2023-04-26T09:20:45.550Z,7.60
2023-04-26T09:23:12.229Z,9.63
2023-04-26T09:25:38.754Z,7.53
2023-04-26T09:28:20.032Z,10.20
2023-04-26T09:30:46.622Z,9.00
2023-04-26T09:33:13.222Z,8.02
2023-04-26T09:35:41.786Z,8.63
2023-04-26T09:38:13.842Z,9.77
2023-04-26T09:40:46.192Z,8.25
2023-04-26T09:43:13.964Z,9.15
2023-04-26T09:45:58.018Z,7.72
2023-04-26T09:48:26.632Z,8.45
2023-04-26T09:50:55.066Z,8.35
2023-04-26T09:53:28.727Z,8.00
2023-04-26T09:55:56.256Z,10.35
2023-04-26T09:58:23.521Z,8.43
2023-04-26T10:00:54.657Z,9.35
2023-04-26T10:03:23.220Z,9.50
2023-04-26T10:05:51.315Z,10.85
2023-04-26T10:08:18.035Z,13.70
2023-04-26T10:10:46.001Z,9.50
2023-04-26T10:13:13.088Z,8.68
2023-04-26T10:15:41.056Z,8.75
2023-04-26T10:18:08.767Z,9.10
2023-04-26T10:20:39.301Z,10.60
2023-04-26T10:23:07.051Z,8.30
2023-04-26T10:25:41.979Z,8.80
2023-04-26T10:28:08.864Z,8.23
2023-04-26T10:30:55.432Z,9.13
2023-04-26T10:33:23.756Z,10.73
2023-04-26T10:36:11.237Z,10.07
2023-04-26T10:38:43.084Z,8.65
2023-04-26T10:41:33.107Z,8.23
2023-04-26T10:44:01.926Z,9.30
2023-04-26T10:46:41.141Z,10.05
2023-04-26T10:49:17.921Z,9.25
2023-04-26T10:52:13.127Z,14.05
2023-04-26T10:54:49.027Z,12.77
2023-04-26T10:57:16.080Z,10.07
2023-04-26T11:00:13.595Z,9.82
2023-04-26T11:02:53.306Z,8.70
2023-04-26T11:05:47.722Z,8.43
2023-04-26T11:08:14.232Z,8.95
2023-04-26T11:10:41.726Z,7.68
2023-04-26T11:13:09.358Z,9.02
2023-04-26T11:15:36.244Z,8.80
2023-04-26T11:18:04.858Z,10.10
2023-04-26T11:20:32.526Z,9.35
2023-04-26T11:22:59.784Z,8.30
2023-04-26T11:25:30.708Z,9.40
2023-04-26T11:28:02.027Z,10.70
2023-04-26T11:30:31.656Z,8.00
2023-04-26T11:33:02.607Z,7.93
2023-04-26T11:35:29.857Z,7.60
2023-04-26T11:37:59.970Z,7.78
2023-04-26T11:40:31.555Z,7.63
2023-04-26T11:43:19.597Z,8.82
2023-04-26T11:45:46.757Z,8.02
2023-04-26T11:48:13.754Z,7.53
2023-04-26T11:50:40.629Z,8.07
2023-04-26T11:53:08.802Z,8.85
2023-04-26T11:55:35.988Z,9.70
2023-04-26T11:58:11.449Z,7.88
2023-04-26T12:00:38.653Z,8.55
2023-04-26T12:03:07.510Z,8.43
2023-04-26T12:05:34.263Z,8.88
2023-04-26T12:08:00.980Z,10.07
2023-04-26T12:10:39.177Z,8.18
2023-04-26T12:13:05.892Z,8.23
2023-04-26T12:15:35.117Z,8.13
2023-04-26T12:18:11.386Z,7.90
2023-04-26T12:20:40.727Z,7.90
2023-04-26T12:23:13.403Z,7.25
2023-04-26T12:25:41.056Z,7.80
2023-04-26T12:28:12.726Z,8.10
2023-04-26T12:30:40.387Z,10.23
2023-04-26T12:33:16.560Z,8.80
2023-04-26T12:35:44.162Z,8.18
2023-04-26T12:38:12.261Z,8.25
2023-04-26T12:40:39.466Z,8.38
2023-04-26T12:43:06.018Z,7.95
2023-04-26T12:45:32.635Z,8.30
2023-04-26T12:47:59.254Z,8.40
2023-04-26T12:50:26.160Z,8.20
2023-04-26T12:52:52.778Z,8.85
2023-04-26T12:55:19.873Z,7.72
2023-04-26T12:57:46.455Z,7.40
2023-04-26T13:00:15.560Z,7.25
2023-04-26T13:02:42.298Z,7.10
2023-04-26T13:05:09.598Z,8.00
2023-04-26T13:07:39.443Z,8.15
2023-04-26T13:10:07.517Z,7.80
2023-04-26T13:12:34.579Z,8.23
2023-04-26T13:15:01.192Z,7.63
2023-04-26T13:17:28.052Z,7.78
2023-04-26T13:19:54.600Z,7.47
2023-04-26T13:22:21.444Z,6.82
2023-04-26T13:24:48.061Z,9.00
2023-04-26T13:27:14.703Z,8.85
2023-04-26T13:29:41.273Z,7.00
2023-04-26T13:32:08.669Z,7.55
2023-04-26T13:34:35.762Z,8.52
2023-04-26T13:37:03.966Z,7.35
2023-04-26T13:39:30.980Z,7.38
2023-04-26T13:41:59.540Z,8.82
2023-04-26T13:44:26.737Z,7.78
2023-04-26T13:46:55.491Z,7.50
2023-04-26T13:49:23.072Z,8.20
2023-04-26T13:51:49.653Z,8.48
2023-04-26T13:54:16.928Z,8.05
2023-04-26T13:56:43.849Z,8.43
2023-04-26T13:59:12.574Z,9.40
2023-04-26T14:01:40.652Z,7.25
2023-04-26T14:04:11.087Z,9.05
2023-04-26T14:06:37.889Z,8.10
2023-04-26T14:09:05.739Z,8.88
2023-04-26T14:11:32.482Z,8.10
2023-04-26T14:13:59.151Z,9.02
2023-04-26T14:16:29.273Z,8.52
2023-04-26T14:18:55.995Z,8.68
2023-04-26T14:21:22.686Z,8.13
2023-04-26T14:23:49.333Z,7.68
2023-04-26T14:26:16.549Z,8.50
2023-04-26T14:28:43.158Z,8.80
2023-04-26T14:31:10.026Z,9.73
2023-04-26T14:33:36.713Z,7.72
2023-04-26T14:36:03.492Z,7.25
2023-04-26T14:38:31.226Z,7.78
2023-04-26T14:40:59.171Z,8.38
2023-04-26T14:43:25.726Z,7.68
2023-04-26T14:45:52.373Z,8.20
2023-04-26T14:48:19.312Z,7.80
2023-04-26T14:50:46.169Z,7.75
2023-04-26T14:53:12.734Z,8.48
2023-04-26T14:55:39.307Z,7.47
2023-04-26T14:58:06.058Z,8.05
2023-04-26T15:00:33.147Z,8.18
2023-04-26T15:03:00.204Z,7.47
2023-04-26T15:05:26.983Z,7.75
2023-04-26T15:07:53.671Z,8.32
2023-04-26T15:10:20.425Z,7.25
2023-04-26T15:12:47.006Z,7.43
2023-04-26T15:15:13.645Z,7.65
2023-04-26T15:17:40.402Z,7.82
2023-04-26T15:20:09.228Z,8.55
2023-04-26T15:22:38.578Z,8.63
2023-04-26T15:25:06.343Z,8.40
2023-04-26T15:27:36.500Z,7.90
2023-04-26T15:30:04.169Z,7.85
2023-04-26T15:32:31.606Z,8.05
2023-04-26T15:34:58.139Z,7.90
2023-04-26T15:37:24.693Z,7.55
2023-04-26T15:39:51.399Z,7.60
2023-04-26T15:42:17.954Z,7.40
2023-04-26T15:44:44.485Z,10.50
2023-04-26T15:47:11.219Z,7.97
2023-04-26T15:49:37.750Z,8.15
2023-04-26T15:52:04.303Z,8.70
2023-04-26T15:54:30.879Z,9.10
2023-04-26T15:56:58.258Z,7.70
2023-04-26T15:59:24.827Z,7.30
2023-04-26T16:01:51.417Z,10.38
2023-04-26T16:04:18.218Z,8.80
2023-04-26T16:06:44.817Z,8.18
2023-04-26T16:09:24.785Z,8.65
2023-04-26T16:11:52.498Z,8.07
2023-04-26T16:14:19.109Z,8.45
2023-04-26T16:16:46.281Z,8.98
2023-04-26T16:19:13.128Z,8.43
2023-04-26T16:21:40.784Z,8.95
2023-04-26T16:24:09.179Z,8.55
2023-04-26T16:26:36.217Z,8.10
2023-04-26T16:29:04.541Z,9.82
2023-04-26T16:31:32.341Z,8.27
2023-04-26T16:33:59.192Z,7.50
2023-04-26T16:36:27.388Z,8.68
2023-04-26T16:38:54.788Z,8.45
2023-04-26T16:41:23.141Z,7.70
2023-04-26T16:43:52.683Z,7.80
2023-04-26T16:46:19.627Z,7.90
2023-04-26T16:48:46.400Z,10.57
2023-04-26T16:51:13.127Z,8.60
2023-04-26T16:53:39.726Z,9.90
2023-04-26T16:58:33.719Z,8.80
2023-04-26T17:01:00.473Z,8.13
2023-04-26T17:03:27.991Z,9.00
2023-04-26T17:05:54.586Z,8.18
2023-04-26T17:08:22.005Z,8.48
2023-04-26T17:10:48.917Z,9.07
2023-04-26T17:13:15.586Z,9.25
2023-04-26T17:15:43.384Z,8.50
2023-04-26T17:18:10.856Z,8.40
2023-04-26T17:20:37.744Z,8.65
2023-04-26T17:23:04.484Z,7.95
2023-04-26T17:25:31.220Z,7.85
2023-04-26T17:27:57.911Z,11.88
2023-04-26T17:30:24.544Z,12.77
2023-04-26T17:32:51.507Z,10.88
2023-04-26T17:35:18.200Z,10.90
2023-04-26T17:37:49.973Z,10.40
2023-04-26T17:40:18.124Z,8.50
2023-04-26T17:42:46.120Z,9.43
2023-04-26T17:45:14.146Z,8.25
2023-04-26T17:47:42.512Z,7.93
2023-04-26T17:50:09.683Z,9.73
2023-04-26T17:52:37.060Z,8.73
2023-04-26T17:55:09.466Z,8.93
2023-04-26T17:57:37.032Z,8.82
2023-04-26T18:00:04.333Z,8.15
2023-04-26T18:02:30.911Z,8.52
2023-04-26T18:04:58.074Z,8.68
2023-04-26T18:07:24.864Z,7.72
2023-04-26T18:09:51.494Z,9.35
2023-04-26T18:12:17.981Z,8.70
2023-04-26T18:14:45.223Z,8.95
2023-04-26T18:17:15.437Z,10.35
2023-04-26T18:19:42.339Z,8.57
2023-04-26T18:22:09.394Z,8.63
2023-04-26T18:24:36.123Z,8.90
2023-04-26T18:27:02.863Z,8.68
2023-04-26T18:29:30.410Z,9.43
2023-04-26T18:31:57.393Z,8.70
2023-04-26T18:34:24.278Z,8.30
2023-04-26T18:36:53.169Z,8.75
2023-04-26T18:39:19.791Z,9.38
2023-04-26T18:41:49.209Z,8.43
2023-04-26T18:44:16.144Z,7.88
2023-04-26T18:46:43.544Z,8.77
2023-04-26T18:49:10.260Z,10.65
2023-04-26T18:51:36.858Z,10.52
2023-04-26T18:54:03.546Z,10.32
2023-04-26T18:56:30.690Z,9.32
2023-04-26T18:58:58.045Z,12.05
2023-04-26T19:01:26.777Z,10.32
2023-04-26T19:03:53.791Z,11.63
2023-04-26T19:06:20.708Z,10.05
2023-04-26T19:08:47.794Z,8.82
2023-04-26T19:11:14.814Z,8.93
2023-04-26T19:13:41.553Z,12.43
2023-04-26T19:16:10.500Z,10.30
2023-04-26T19:18:44.387Z,11.02
2023-04-26T19:21:11.095Z,10.30
2023-04-26T19:23:37.946Z,10.20
2023-04-26T19:26:12.282Z,8.57
2023-04-26T19:28:39.365Z,8.82
2023-04-26T19:31:06.587Z,8.82
2023-04-26T19:33:33.216Z,8.32
2023-04-26T19:35:59.790Z,9.40
2023-04-26T19:38:26.383Z,9.80
2023-04-26T19:40:53.213Z,11.50
2023-04-26T19:43:20.068Z,8.00
2023-04-26T19:45:46.966Z,9.50
2023-04-26T19:48:13.971Z,8.73
2023-04-26T19:50:41.649Z,8.52
2023-04-26T19:53:13.351Z,8.90
2023-04-26T19:55:41.024Z,9.13
2023-04-26T19:58:10.070Z,8.95
2023-04-26T20:00:36.830Z,8.05
2023-04-26T20:03:03.803Z,8.35
2023-04-26T20:05:31.394Z,8.80
2023-04-26T20:07:58.326Z,8.93
2023-04-26T20:10:25.573Z,9.02
2023-04-26T20:12:53.326Z,8.15
2023-04-26T20:15:19.998Z,9.48
2023-04-26T20:17:47.011Z,9.27
2023-04-26T20:20:14.466Z,8.48
2023-04-26T20:22:41.610Z,10.00
2023-04-26T20:25:08.710Z,8.23
2023-04-26T20:27:35.307Z,9.07
2023-04-26T20:30:02.400Z,9.82
2023-04-26T20:32:31.607Z,10.43
2023-04-26T20:34:58.242Z,12.68
2023-04-26T20:37:24.955Z,10.02
2023-04-26T20:39:51.622Z,9.07
2023-04-26T20:42:18.211Z,9.82
2023-04-26T20:44:44.743Z,9.23
2023-04-26T20:47:11.283Z,9.10
2023-04-26T20:49:37.800Z,9.13
2023-04-26T20:52:04.642Z,9.38
2023-04-26T20:54:31.846Z,9.20
2023-04-26T20:56:58.607Z,9.32
2023-04-26T20:59:26.013Z,9.40
2023-04-26T21:01:53.230Z,8.82
2023-04-26T21:04:20.252Z,9.25
2023-04-26T21:06:47.030Z,8.55
2023-04-26T21:09:13.593Z,9.90
2023-04-26T21:11:40.161Z,9.05
2023-04-26T21:14:07.199Z,9.43
2023-04-26T21:16:33.819Z,9.88
2023-04-26T21:19:00.452Z,8.45
2023-04-26T21:21:28.709Z,9.27
2023-04-26T21:23:55.665Z,10.15
2023-04-26T21:26:22.240Z,12.70
2023-04-26T21:28:48.809Z,8.88
2023-04-26T21:31:15.694Z,9.38
2023-04-26T21:33:42.240Z,9.65
2023-04-26T21:36:09.086Z,9.50
2023-04-26T21:38:35.808Z,9.98
2023-04-26T21:41:02.396Z,9.68
2023-04-26T21:43:28.877Z,9.63
2023-04-26T21:45:57.891Z,10.13
2023-04-26T21:48:26.145Z,8.63
2023-04-26T21:50:52.788Z,10.55
2023-04-26T21:53:19.381Z,9.68
2023-04-26T21:55:51.684Z,8.82
2023-04-26T21:58:19.265Z,9.15
2023-04-26T22:00:46.553Z,9.38
2023-04-26T22:03:13.876Z,9.15
2023-04-26T22:05:40.561Z,10.25
2023-04-26T22:08:07.454Z,9.63
2023-04-26T22:10:34.356Z,9.90
2023-04-26T22:13:00.873Z,9.75
2023-04-26T22:15:27.592Z,9.75
2023-04-26T22:17:54.195Z,9.93
2023-04-26T22:20:21.515Z,10.27
2023-04-26T22:22:48.066Z,13.52
2023-04-26T22:25:14.611Z,12.50
2023-04-26T22:27:41.155Z,11.02
2023-04-26T22:30:22.771Z,10.55
2023-04-26T22:32:54.740Z,9.30
2023-04-26T22:35:22.078Z,9.15
2023-04-26T22:37:48.935Z,11.32
2023-04-26T22:40:16.210Z,9.07
2023-04-26T22:42:43.094Z,9.48
2023-04-26T22:45:10.851Z,10.63
2023-04-26T22:47:37.887Z,9.18
2023-04-26T22:50:05.271Z,9.80
2023-04-26T22:52:32.214Z,9.60
2023-04-26T22:55:00.030Z,9.52
2023-04-26T22:57:27.072Z,10.07
2023-04-26T22:59:53.618Z,10.68
2023-04-26T23:02:20.924Z,9.07
2023-04-26T23:04:48.312Z,9.10
2023-04-26T23:07:14.838Z,10.75
2023-04-26T23:09:41.547Z,9.68
2023-04-26T23:12:08.161Z,10.88
2023-04-26T23:14:35.272Z,10.35
2023-04-26T23:17:02.788Z,9.70
2023-04-26T23:19:29.506Z,10.82
2023-04-26T23:21:56.451Z,10.00
2023-04-26T23:24:23.109Z,9.90
2023-04-26T23:26:49.620Z,10.25
2023-04-26T23:29:16.107Z,9.90
2023-04-26T23:31:43.027Z,10.00
2023-04-26T23:34:09.684Z,9.40
2023-04-26T23:36:36.555Z,10.07
2023-04-26T23:39:03.882Z,9.52
2023-04-26T23:41:33.347Z,10.15
2023-04-26T23:43:59.848Z,9.77
2023-04-26T23:46:26.362Z,10.63
2023-04-26T23:48:52.910Z,10.13
2023-04-26T23:51:19.501Z,9.57
2023-04-26T23:53:46.054Z,9.32
2023-04-26T23:56:13.204Z,9.70
2023-04-26T23:58:39.982Z,9.85
